Time;durP1;ratioP1;P1;durP2;ratioP2;P2;SDS_P1;SDS_P2;PMS_P1;PMS_P2;Temp;Humidity;BMP_temperature;BMP_pressure;BME280_temperature;BME280_humidity;BME280_pressure;Samples;Min_cycle;Max_cycle;Signal;HPM_P1;HPM_P2
2022/11/27 00:00:43;;;;;;;12.95;8.02;;;;;;;;;;5050537;28;20295;-79
2022/11/27 00:03:09;;;;;;;13.38;7.60;;;;;;;;;;5050227;28;20636;-77
2022/11/27 00:05:34;;;;;;;10.93;6.97;;;;;;;;;;5050192;28;20099;-76
2022/11/27 00:08:00;;;;;;;10.48;6.35;;;;;;;;;;5050380;28;20150;-79
2022/11/27 00:10:25;;;;;;;11.45;6.53;;;;;;;;;;5052179;28;20025;-78
2022/11/27 00:12:50;;;;;;;9.75;6.05;;;;;;;;;;5049932;28;20025;-77
2022/11/27 00:15:17;;;;;;;10.10;5.80;;;;;;;;;;5050277;28;20496;-77
2022/11/27 00:17:43;;;;;;;9.20;6.38;;;;;;;;;;5050233;28;20060;-78
2022/11/27 00:20:09;;;;;;;10.35;6.82;;;;;;;;;;5050131;28;20072;-77
2022/11/27 00:22:34;;;;;;;9.98;6.50;;;;;;;;;;5049849;28;20032;-80
2022/11/27 00:24:59;;;;;;;11.45;7.00;;;;;;;;;;5049787;28;20017;-79
2022/11/27 00:27:25;;;;;;;11.48;6.38;;;;;;;;;;5050049;28;20100;-79
2022/11/27 00:29:50;;;;;;;11.82;6.80;;;;;;;;;;5050050;28;20017;-78
2022/11/27 00:32:15;;;;;;;12.63;6.70;;;;;;;;;;5050507;28;20518;-79
2022/11/27 00:34:41;;;;;;;8.93;5.75;;;;;;;;;;5051732;28;20021;-79
2022/11/27 00:37:06;;;;;;;8.65;5.90;;;;;;;;;;5050106;28;20021;-78
2022/11/27 00:39:32;;;;;;;9.63;6.25;;;;;;;;;;5050197;28;20056;-80
2022/11/27 00:41:58;;;;;;;9.75;5.78;;;;;;;;;;5049415;28;20060;-80
2022/11/27 00:44:23;;;;;;;9.18;6.07;;;;;;;;;;5049343;28;20061;-78
2022/11/27 00:46:49;;;;;;;9.52;6.10;;;;;;;;;;5049945;28;20485;-78
2022/11/27 00:49:14;;;;;;;9.13;5.60;;;;;;;;;;5049783;28;20959;-79
2022/11/27 00:51:40;;;;;;;8.20;5.78;;;;;;;;;;5048902;28;20477;-78
2022/11/27 00:54:06;;;;;;;8.93;5.70;;;;;;;;;;5049468;28;20029;-78
2022/11/27 00:56:35;;;;;;;10.23;6.40;;;;;;;;;;5048184;28;20048;-78
2022/11/27 00:59:01;;;;;;;9.55;6.15;;;;;;;;;;5047624;28;20385;-79
2022/11/27 01:01:29;;;;;;;8.65;6.25;;;;;;;;;;5049621;28;20469;-80
2022/11/27 01:03:56;;;;;;;10.65;6.50;;;;;;;;;;5049529;28;20033;-79
2022/11/27 01:06:22;;;;;;;11.63;6.00;;;;;;;;;;5049458;28;20036;-78
2022/11/27 01:08:48;;;;;;;9.00;6.10;;;;;;;;;;5049673;28;20570;-80
2022/11/27 01:11:19;;;;;;;9.77;6.35;;;;;;;;;;5048129;28;20025;-80
2022/11/27 01:13:45;;;;;;;8.98;6.15;;;;;;;;;;5048918;28;20025;-80
2022/11/27 01:16:14;;;;;;;9.65;6.22;;;;;;;;;;5049136;28;20029;-80
2022/11/27 01:18:42;;;;;;;10.02;6.38;;;;;;;;;;5049434;28;20036;-80
2022/11/27 01:21:09;;;;;;;12.05;7.00;;;;;;;;;;5049202;28;20021;-81
2022/11/27 01:23:34;;;;;;;12.80;6.40;;;;;;;;;;5049217;28;20367;-80
2022/11/27 01:26:05;;;;;;;11.20;7.55;;;;;;;;;;5049318;28;20400;-80
2022/11/27 01:28:31;;;;;;;11.82;7.53;;;;;;;;;;5049127;28;20021;-79
2022/11/27 01:30:57;;;;;;;11.48;7.00;;;;;;;;;;5049082;28;20039;-80
2022/11/27 01:33:22;;;;;;;9.82;6.78;;;;;;;;;;5049030;28;20025;-79
2022/11/27 01:36:04;;;;;;;10.88;6.93;;;;;;;;;;5049094;28;20492;-80
2022/11/27 01:38:30;;;;;;;9.48;6.43;;;;;;;;;;5049314;28;20427;-79
2022/11/27 01:41:00;;;;;;;10.38;6.72;;;;;;;;;;5049287;28;20029;-80
2022/11/27 01:43:41;;;;;;;10.30;6.70;;;;;;;;;;5048856;28;20107;-79
2022/11/27 01:46:41;;;;;;;10.65;6.47;;;;;;;;;;5049247;28;20035;-80
2022/11/27 01:49:09;;;;;;;9.73;6.45;;;;;;;;;;5049323;28;20693;-80
2022/11/27 01:51:38;;;;;;;8.90;6.00;;;;;;;;;;5049770;28;20094;-80
2022/11/27 01:54:04;;;;;;;9.65;5.88;;;;;;;;;;5049293;28;20029;-80
2022/11/27 01:56:29;;;;;;;9.23;6.50;;;;;;;;;;5050492;28;20052;-80
2022/11/27 01:58:57;;;;;;;8.95;6.10;;;;;;;;;;5048674;28;20017;-79
2022/11/27 02:01:24;;;;;;;10.57;6.32;;;;;;;;;;5049025;28;20491;-80
2022/11/27 02:03:52;;;;;;;9.38;6.18;;;;;;;;;;5051981;28;20048;-79
2022/11/27 02:06:17;;;;;;;9.32;6.28;;;;;;;;;;5053264;28;20037;-80
2022/11/27 02:08:43;;;;;;;9.75;6.47;;;;;;;;;;5052779;28;20063;-79
2022/11/27 02:11:14;;;;;;;8.55;6.05;;;;;;;;;;5050974;28;20139;-80
2022/11/27 02:14:12;;;;;;;9.90;6.22;;;;;;;;;;5052488;28;20025;-79
2022/11/27 02:16:49;;;;;;;12.82;6.75;;;;;;;;;;5055616;28;20070;-79
2022/11/27 02:19:20;;;;;;;10.73;5.90;;;;;;;;;;5052733;28;20075;-81
2022/11/27 02:21:55;;;;;;;11.23;5.57;;;;;;;;;;5052439;28;20033;-80
2022/11/27 02:24:45;;;;;;;9.23;5.57;;;;;;;;;;5052254;28;20025;-80
2022/11/27 02:27:39;;;;;;;9.55;5.25;;;;;;;;;;5052552;28;20101;-80
2022/11/27 02:30:06;;;;;;;9.20;5.18;;;;;;;;;;5052459;28;20025;-79
2022/11/27 02:32:38;;;;;;;8.55;5.07;;;;;;;;;;5052969;28;20217;-79
2022/11/27 02:35:27;;;;;;;8.80;5.15;;;;;;;;;;5054736;28;20021;-80
2022/11/27 02:37:57;;;;;;;8.15;5.00;;;;;;;;;;5052320;28;20116;-80
2022/11/27 02:40:51;;;;;;;8.45;5.25;;;;;;;;;;5052215;28;20039;-77
2022/11/27 02:43:22;;;;;;;8.93;5.20;;;;;;;;;;5052002;28;20412;-81
2022/11/27 02:45:50;;;;;;;8.35;5.18;;;;;;;;;;5050362;28;20113;-80
2022/11/27 02:48:24;;;;;;;7.97;5.05;;;;;;;;;;5052055;28;20024;-78
2022/11/27 02:50:51;;;;;;;8.77;5.47;;;;;;;;;;5050394;28;20033;-80
2022/11/27 02:53:21;;;;;;;11.10;5.45;;;;;;;;;;5053399;28;20083;-78
2022/11/27 02:55:48;;;;;;;9.52;5.38;;;;;;;;;;5052765;28;20107;-77
2022/11/27 02:58:18;;;;;;;9.25;5.45;;;;;;;;;;5051305;28;20508;-78
2022/11/27 03:00:45;;;;;;;11.18;5.55;;;;;;;;;;5053410;28;20025;-76
2022/11/27 03:03:13;;;;;;;11.52;5.93;;;;;;;;;;5051409;28;20029;-76
2022/11/27 03:05:41;;;;;;;10.18;6.30;;;;;;;;;;5051571;28;20378;-78
2022/11/27 03:08:24;;;;;;;12.55;6.15;;;;;;;;;;5052148;28;20025;-76
2022/11/27 03:11:10;;;;;;;9.13;5.65;;;;;;;;;;5051418;28;20032;-78
2022/11/27 03:13:41;;;;;;;11.07;6.18;;;;;;;;;;5050680;28;20032;-77
2022/11/27 03:16:34;;;;;;;10.60;6.03;;;;;;;;;;5051280;28;20079;-76
2022/11/27 03:19:14;;;;;;;10.82;6.47;;;;;;;;;;5053169;28;20025;-76
2022/11/27 03:21:44;;;;;;;11.40;6.70;;;;;;;;;;5051318;28;20104;-80
2022/11/27 03:24:10;;;;;;;11.50;6.32;;;;;;;;;;5051168;28;20485;-79
2022/11/27 03:26:38;;;;;;;9.80;5.70;;;;;;;;;;5051204;28;20025;-79
2022/11/27 03:29:07;;;;;;;9.13;5.35;;;;;;;;;;5052784;28;20033;-78
2022/11/27 03:31:33;;;;;;;8.35;5.28;;;;;;;;;;5051214;28;20024;-76
2022/11/27 03:33:58;;;;;;;11.43;5.55;;;;;;;;;;5050984;28;20036;-77
2022/11/27 03:36:24;;;;;;;7.90;4.82;;;;;;;;;;5050867;28;20021;-77
2022/11/27 03:38:52;;;;;;;11.10;5.18;;;;;;;;;;5051594;28;20028;-79
2022/11/27 03:41:21;;;;;;;8.40;5.05;;;;;;;;;;5051577;28;20505;-79
2022/11/27 03:44:02;;;;;;;6.75;4.25;;;;;;;;;;5050585;28;20973;-77
2022/11/27 03:46:34;;;;;;;7.88;4.82;;;;;;;;;;5050927;28;20400;-78
2022/11/27 03:49:15;;;;;;;11.15;5.47;;;;;;;;;;5051113;28;20021;-81
2022/11/27 03:52:45;;;;;;;10.05;5.43;;;;;;;;;;5049676;28;20036;-80
2022/11/27 03:55:21;;;;;;;11.90;5.68;;;;;;;;;;5008360;28;20489;-80
2022/11/27 03:57:58;;;;;;;11.82;6.05;;;;;;;;;;5007790;28;20061;-78
2022/11/27 04:00:26;;;;;;;12.40;6.32;;;;;;;;;;5034305;28;20128;-80
2022/11/27 04:02:52;;;;;;;13.30;5.82;;;;;;;;;;5050541;28;20040;-81
2022/11/27 04:05:19;;;;;;;11.40;5.50;;;;;;;;;;5050633;28;20029;-81
2022/11/27 04:07:45;;;;;;;9.27;4.82;;;;;;;;;;5050481;28;20052;-81
2022/11/27 04:10:11;;;;;;;10.48;4.95;;;;;;;;;;5050607;28;20025;-80
2022/11/27 04:12:37;;;;;;;9.70;4.63;;;;;;;;;;5049884;28;20040;-79
2022/11/27 04:15:03;;;;;;;9.43;3.80;;;;;;;;;;5050447;28;20025;-80
2022/11/27 04:17:28;;;;;;;8.65;3.45;;;;;;;;;;5050246;28;20021;-78
2022/11/27 04:19:54;;;;;;;7.38;3.20;;;;;;;;;;5050570;28;20388;-78
2022/11/27 04:22:19;;;;;;;6.90;2.80;;;;;;;;;;5050266;28;20024;-77
2022/11/27 04:24:45;;;;;;;8.90;2.35;;;;;;;;;;5050049;28;20029;-78
2022/11/27 04:27:10;;;;;;;6.95;2.35;;;;;;;;;;5048720;28;20079;-77
2022/11/27 04:29:36;;;;;;;6.18;2.40;;;;;;;;;;5050173;28;20412;-79
2022/11/27 04:32:03;;;;;;;6.03;2.50;;;;;;;;;;5048509;28;20045;-79
2022/11/27 04:34:28;;;;;;;7.45;2.22;;;;;;;;;;5049969;28;20024;-78
2022/11/27 04:36:53;;;;;;;5.85;2.03;;;;;;;;;;5049926;28;20025;-78
2022/11/27 04:39:19;;;;;;;6.90;2.10;;;;;;;;;;5050214;28;20534;-78
2022/11/27 04:41:44;;;;;;;4.75;2.00;;;;;;;;;;5049806;28;20033;-80
2022/11/27 04:44:10;;;;;;;5.18;1.92;;;;;;;;;;5049240;28;20064;-79
2022/11/27 04:46:36;;;;;;;5.80;1.85;;;;;;;;;;5049745;28;20550;-78
2022/11/27 04:49:01;;;;;;;9.13;1.70;;;;;;;;;;5049776;28;20029;-80
2022/11/27 04:51:27;;;;;;;3.28;1.55;;;;;;;;;;5048324;28;20103;-79
2022/11/27 04:53:52;;;;;;;6.28;1.77;;;;;;;;;;5049689;28;20384;-78
2022/11/27 04:56:17;;;;;;;8.60;2.03;;;;;;;;;;5049755;28;20426;-79
2022/11/27 04:58:43;;;;;;;3.90;1.73;;;;;;;;;;5049349;28;20078;-80
2022/11/27 05:01:08;;;;;;;4.88;1.80;;;;;;;;;;5050429;28;20036;-83
2022/11/27 05:03:34;;;;;;;3.63;1.50;;;;;;;;;;5069227;28;20388;-83
2022/11/27 05:05:59;;;;;;;4.15;1.50;;;;;;;;;;5069442;28;20387;-81
2022/11/27 05:08:27;;;;;;;6.30;1.85;;;;;;;;;;5069487;28;20065;-81
2022/11/27 05:11:01;;;;;;;3.65;1.40;;;;;;;;;;5069879;28;20063;-80
2022/11/27 05:13:26;;;;;;;4.72;1.60;;;;;;;;;;5068943;28;20062;-80
2022/11/27 05:15:52;;;;;;;8.35;1.52;;;;;;;;;;5071054;28;20581;-80
2022/11/27 05:18:17;;;;;;;7.28;1.52;;;;;;;;;;5069986;28;20028;-83
2022/11/27 05:20:42;;;;;;;4.45;1.77;;;;;;;;;;5069499;28;20037;-84
2022/11/27 05:23:08;;;;;;;4.70;1.40;;;;;;;;;;5069016;28;20380;-81
2022/11/27 05:25:33;;;;;;;4.93;1.60;;;;;;;;;;5070689;28;20031;-81
2022/11/27 05:27:58;;;;;;;5.30;1.60;;;;;;;;;;5069019;28;20158;-83
2022/11/27 05:30:24;;;;;;;4.75;1.40;;;;;;;;;;5069729;28;20029;-82
2022/11/27 05:32:49;;;;;;;5.00;1.35;;;;;;;;;;5069312;28;20032;-83
2022/11/27 05:35:15;;;;;;;4.28;1.48;;;;;;;;;;5069299;28;20024;-83
2022/11/27 05:37:40;;;;;;;5.65;1.40;;;;;;;;;;5072069;28;20027;-83
2022/11/27 05:40:06;;;;;;;4.32;1.40;;;;;;;;;;5073266;28;20490;-82
2022/11/27 05:42:32;;;;;;;2.75;1.27;;;;;;;;;;5071376;28;20102;-82
2022/11/27 05:44:57;;;;;;;4.70;1.42;;;;;;;;;;5073449;28;20032;-82
2022/11/27 05:47:23;;;;;;;2.63;1.20;;;;;;;;;;5072943;28;20071;-81
2022/11/27 05:49:48;;;;;;;5.55;1.30;;;;;;;;;;5073518;28;20075;-82
2022/11/27 05:52:13;;;;;;;5.15;1.60;;;;;;;;;;5073952;28;20536;-82
2022/11/27 05:54:39;;;;;;;4.78;1.27;;;;;;;;;;5072801;28;20028;-81
2022/11/27 05:57:04;;;;;;;9.55;1.50;;;;;;;;;;5072500;28;20298;-81
2022/11/27 05:59:29;;;;;;;5.82;1.50;;;;;;;;;;5072779;28;20046;-83
2022/11/27 06:01:55;;;;;;;3.42;1.27;;;;;;;;;;5074026;28;20069;-82
2022/11/27 06:04:20;;;;;;;2.45;1.30;;;;;;;;;;5072528;28;20029;-83
2022/11/27 06:06:46;;;;;;;2.75;1.30;;;;;;;;;;5071586;28;20138;-82
2022/11/27 06:09:12;;;;;;;3.33;1.10;;;;;;;;;;5072660;28;20029;-83
2022/11/27 06:11:37;;;;;;;3.70;1.20;;;;;;;;;;5072648;28;20034;-82
2022/11/27 06:14:05;;;;;;;3.55;1.20;;;;;;;;;;5071945;28;20028;-82
2022/11/27 06:16:31;;;;;;;2.65;1.10;;;;;;;;;;5072681;28;20497;-82
2022/11/27 06:18:56;;;;;;;3.60;1.20;;;;;;;;;;5072710;28;20035;-82
2022/11/27 06:21:22;;;;;;;6.35;1.55;;;;;;;;;;5072778;28;20063;-82
2022/11/27 06:23:48;;;;;;;3.78;1.38;;;;;;;;;;5072281;28;20119;-82
2022/11/27 06:26:20;;;;;;;7.35;1.63;;;;;;;;;;5072719;28;20111;-81
2022/11/27 06:28:47;;;;;;;2.83;1.40;;;;;;;;;;5070514;28;20473;-81
2022/11/27 06:31:18;;;;;;;5.10;1.27;;;;;;;;;;5072434;28;20037;-82
2022/11/27 06:33:47;;;;;;;3.13;1.30;;;;;;;;;;5072018;28;20063;-81
2022/11/27 06:36:13;;;;;;;3.00;1.20;;;;;;;;;;5072208;28;20078;-81
2022/11/27 06:38:38;;;;;;;3.55;1.33;;;;;;;;;;5072115;28;20021;-83
2022/11/27 06:41:12;;;;;;;4.00;1.20;;;;;;;;;;5072412;28;20381;-83
2022/11/27 06:43:38;;;;;;;3.63;1.33;;;;;;;;;;5071492;28;20028;-83
2022/11/27 06:46:05;;;;;;;4.43;1.10;;;;;;;;;;5072059;28;20032;-82
2022/11/27 06:48:32;;;;;;;4.82;1.40;;;;;;;;;;5071254;28;20020;-84
2022/11/27 06:50:59;;;;;;;3.63;1.23;;;;;;;;;;5071748;28;20039;-81
2022/11/27 06:53:24;;;;;;;3.40;1.30;;;;;;;;;;5072801;28;20029;-78
2022/11/27 06:55:50;;;;;;;3.80;1.17;;;;;;;;;;5071980;28;20020;-81
2022/11/27 06:58:15;;;;;;;6.72;1.63;;;;;;;;;;5071414;28;20044;-81
2022/11/27 07:00:41;;;;;;;2.83;1.40;;;;;;;;;;5072179;28;20166;-83
2022/11/27 07:03:06;;;;;;;5.50;1.10;;;;;;;;;;5071967;28;20107;-83
2022/11/27 07:05:31;;;;;;;3.67;1.30;;;;;;;;;;5071783;28;20404;-83
2022/11/27 07:07:57;;;;;;;5.88;1.63;;;;;;;;;;5071987;28;20021;-83
2022/11/27 07:10:23;;;;;;;4.28;1.13;;;;;;;;;;5071666;28;20035;-81
2022/11/27 07:12:48;;;;;;;7.43;1.25;;;;;;;;;;5071740;28;20033;-81
2022/11/27 07:15:13;;;;;;;4.38;1.40;;;;;;;;;;5071259;28;20441;-81
2022/11/27 07:17:40;;;;;;;8.05;1.55;;;;;;;;;;5071777;28;20029;-81
2022/11/27 07:20:06;;;;;;;6.03;1.38;;;;;;;;;;5071361;28;20031;-80
2022/11/27 07:22:32;;;;;;;3.63;1.35;;;;;;;;;;5071508;28;20078;-82
2022/11/27 07:24:57;;;;;;;2.65;1.40;;;;;;;;;;5070951;28;20016;-82
2022/11/27 07:27:23;;;;;;;2.63;1.30;;;;;;;;;;5070915;28;20121;-80
2022/11/27 07:29:48;;;;;;;4.35;1.50;;;;;;;;;;5071201;28;20029;-80
2022/11/27 07:32:14;;;;;;;5.40;1.42;;;;;;;;;;5071369;28;20086;-81
2022/11/27 07:34:39;;;;;;;3.92;1.10;;;;;;;;;;5071134;28;20115;-79
2022/11/27 07:37:05;;;;;;;6.07;1.30;;;;;;;;;;5070962;28;20035;-81
2022/11/27 07:39:30;;;;;;;7.22;1.48;;;;;;;;;;5071141;28;20457;-81
2022/11/27 07:41:55;;;;;;;4.15;1.40;;;;;;;;;;5071018;28;20025;-81
2022/11/27 07:44:21;;;;;;;5.50;1.73;;;;;;;;;;5070407;28;20024;-81
2022/11/27 07:46:46;;;;;;;3.60;1.42;;;;;;;;;;5070783;28;20431;-82
2022/11/27 07:49:11;;;;;;;3.55;1.38;;;;;;;;;;5070916;28;20040;-81
2022/11/27 07:51:37;;;;;;;6.10;1.90;;;;;;;;;;5070821;28;20032;-82
2022/11/27 07:54:02;;;;;;;2.92;1.20;;;;;;;;;;5070597;28;20067;-82
2022/11/27 07:56:29;;;;;;;3.17;1.33;;;;;;;;;;5070303;28;20470;-82
2022/11/27 07:58:56;;;;;;;3.85;1.30;;;;;;;;;;5070207;28;20057;-80
2022/11/27 08:01:22;;;;;;;3.88;1.20;;;;;;;;;;5070408;28;20472;-83
2022/11/27 08:03:48;;;;;;;4.93;1.38;;;;;;;;;;5070340;28;20028;-80
2022/11/27 08:06:25;;;;;;;5.47;1.52;;;;;;;;;;5069205;28;20025;-78
2022/11/27 08:08:51;;;;;;;4.28;1.48;;;;;;;;;;5070702;28;20075;-74
2022/11/27 08:11:28;;;;;;;6.13;1.60;;;;;;;;;;5070595;28;20045;-75
2022/11/27 08:13:56;;;;;;;4.28;1.50;;;;;;;;;;5071570;28;20507;-77
2022/11/27 08:16:22;;;;;;;6.20;1.73;;;;;;;;;;5068626;28;20063;-78
2022/11/27 08:18:47;;;;;;;5.80;1.60;;;;;;;;;;5072669;28;20021;-75
2022/11/27 08:21:13;;;;;;;4.43;1.35;;;;;;;;;;5070233;28;20020;-81
2022/11/27 08:23:39;;;;;;;5.50;1.42;;;;;;;;;;5070539;28;20392;-77
2022/11/27 08:26:07;;;;;;;6.75;1.70;;;;;;;;;;5069815;28;20017;-77
2022/11/27 08:28:32;;;;;;;5.78;1.60;;;;;;;;;;5070142;28;20021;-77
2022/11/27 08:31:00;;;;;;;5.80;1.67;;;;;;;;;;5069875;28;20027;-77
2022/11/27 08:33:25;;;;;;;5.90;1.80;;;;;;;;;;5070607;28;20590;-81
2022/11/27 08:35:51;;;;;;;10.75;1.70;;;;;;;;;;5076040;28;20012;-78
2022/11/27 08:38:16;;;;;;;7.63;1.73;;;;;;;;;;5072785;28;20263;-74
2022/11/27 08:40:42;;;;;;;6.63;1.77;;;;;;;;;;5073287;28;20031;-76
2022/11/27 08:43:07;;;;;;;3.65;1.60;;;;;;;;;;5069644;28;20519;-82
2022/11/27 08:45:32;;;;;;;7.65;1.80;;;;;;;;;;5070141;28;20051;-78
2022/11/27 08:47:58;;;;;;;6.28;1.73;;;;;;;;;;5068045;28;20040;-77
2022/11/27 08:50:23;;;;;;;6.72;1.77;;;;;;;;;;5059444;28;20035;-78
2022/11/27 08:52:49;;;;;;;5.25;1.80;;;;;;;;;;5062372;28;20086;-81
2022/11/27 08:55:14;;;;;;;3.97;1.45;;;;;;;;;;5052014;28;20078;-76
2022/11/27 08:57:40;;;;;;;5.35;1.85;;;;;;;;;;5063833;28;20608;-74
2022/11/27 09:00:06;;;;;;;6.28;1.85;;;;;;;;;;5075008;28;20125;-77
2022/11/27 09:02:32;;;;;;;3.33;1.65;;;;;;;;;;5070821;28;20077;-76
2022/11/27 09:04:58;;;;;;;4.50;1.90;;;;;;;;;;5070521;28;20036;-77
2022/11/27 09:07:23;;;;;;;5.28;1.90;;;;;;;;;;5075414;28;20025;-78
2022/11/27 09:09:49;;;;;;;3.80;1.80;;;;;;;;;;5069456;28;20611;-77
2022/11/27 09:12:14;;;;;;;5.80;1.77;;;;;;;;;;5071824;28;20028;-79
2022/11/27 09:14:40;;;;;;;6.55;1.88;;;;;;;;;;5068992;28;20031;-77
2022/11/27 09:17:05;;;;;;;5.53;2.13;;;;;;;;;;5057978;28;20029;-77
2022/11/27 09:19:30;;;;;;;5.82;2.20;;;;;;;;;;5062468;28;20031;-78
2022/11/27 09:21:56;;;;;;;7.05;1.90;;;;;;;;;;5068886;28;20075;-76
2022/11/27 09:24:22;;;;;;;5.18;2.00;;;;;;;;;;5070087;28;20029;-78
2022/11/27 09:26:47;;;;;;;7.65;1.88;;;;;;;;;;5071128;28;20029;-78
2022/11/27 09:29:13;;;;;;;5.25;2.22;;;;;;;;;;5071617;28;20100;-78
2022/11/27 09:31:38;;;;;;;4.70;1.60;;;;;;;;;;5070148;28;20477;-78
2022/11/27 09:34:04;;;;;;;4.78;1.75;;;;;;;;;;5074137;28;20109;-78
2022/11/27 09:36:30;;;;;;;2.90;1.42;;;;;;;;;;5073408;28;20050;-77
2022/11/27 09:38:58;;;;;;;4.85;1.70;;;;;;;;;;5052564;28;20025;-78
2022/11/27 09:41:42;;;;;;;4.43;1.70;;;;;;;;;;5047901;28;20401;-76
2022/11/27 09:44:16;;;;;;;5.90;1.55;;;;;;;;;;5048111;28;20036;-77
2022/11/27 09:46:43;;;;;;;5.72;1.92;;;;;;;;;;5047303;28;20021;-79
2022/11/27 09:49:14;;;;;;;4.13;1.90;;;;;;;;;;5067426;28;20020;-77
2022/11/27 09:51:50;;;;;;;5.50;1.60;;;;;;;;;;5068643;28;20025;-77
2022/11/27 09:54:16;;;;;;;5.72;1.90;;;;;;;;;;5068821;28;20044;-77
2022/11/27 09:56:46;;;;;;;4.90;2.00;;;;;;;;;;5068002;28;20072;-75
2022/11/27 09:59:14;;;;;;;;;;;;;;;;;;5067736;28;20037;-75
2022/11/27 10:01:40;;;;;;;6.45;1.83;;;;;;;;;;5100746;28;19908;-77
2022/11/27 10:04:17;;;;;;;5.75;1.85;;;;;;;;;;5068593;28;20028;-76
2022/11/27 10:06:57;;;;;;;4.45;1.98;;;;;;;;;;5067893;28;20020;-75
2022/11/27 10:09:29;;;;;;;6.50;2.70;;;;;;;;;;5068532;28;20048;-76
2022/11/27 10:11:54;;;;;;;8.27;2.90;;;;;;;;;;5068457;28;20400;-76
2022/11/27 10:14:22;;;;;;;8.35;2.17;;;;;;;;;;5067953;28;20089;-77
2022/11/27 10:16:56;;;;;;;4.55;1.90;;;;;;;;;;5067992;28;20099;-76
2022/11/27 10:19:44;;;;;;;6.90;2.00;;;;;;;;;;5068376;28;20636;-76
2022/11/27 10:22:18;;;;;;;6.45;1.90;;;;;;;;;;5067881;28;20024;-80
2022/11/27 10:25:08;;;;;;;4.70;2.08;;;;;;;;;;5071207;28;20064;-77
2022/11/27 10:27:50;;;;;;;7.72;2.28;;;;;;;;;;5071382;28;20526;-79
2022/11/27 10:30:19;;;;;;;9.30;2.30;;;;;;;;;;5072157;28;20123;-79
2022/11/27 10:32:51;;;;;;;6.82;2.50;;;;;;;;;;5070720;28;20029;-79
2022/11/27 10:35:22;;;;;;;5.38;2.08;;;;;;;;;;5070224;28;20486;-80
2022/11/27 10:38:02;;;;;;;8.57;2.47;;;;;;;;;;5069868;28;20028;-80
2022/11/27 10:40:42;;;;;;;9.23;2.72;;;;;;;;;;5070217;28;20036;-79
2022/11/27 10:43:22;;;;;;;3.70;1.95;;;;;;;;;;5069179;28;20075;-77
2022/11/27 10:46:00;;;;;;;6.72;2.25;;;;;;;;;;5069006;28;20107;-79
2022/11/27 10:48:27;;;;;;;5.57;1.90;;;;;;;;;;5068632;28;20024;-78
2022/11/27 10:50:52;;;;;;;6.10;1.88;;;;;;;;;;5070238;28;20026;-78
2022/11/27 10:53:26;;;;;;;8.63;2.50;;;;;;;;;;5070057;28;20438;-79
2022/11/27 10:55:56;;;;;;;8.75;2.15;;;;;;;;;;5069768;28;20021;-76
2022/11/27 10:58:39;;;;;;;6.63;2.50;;;;;;;;;;5069485;28;20033;-77
2022/11/27 11:01:13;;;;;;;7.78;2.28;;;;;;;;;;5070568;28;20032;-77
2022/11/27 11:03:39;;;;;;;5.90;2.20;;;;;;;;;;5071423;28;20052;-78
2022/11/27 11:06:24;;;;;;;7.13;2.05;;;;;;;;;;5071157;28;20024;-76
2022/11/27 11:09:03;;;;;;;5.10;2.13;;;;;;;;;;5071332;28;20169;-76
2022/11/27 11:11:28;;;;;;;7.10;2.28;;;;;;;;;;5069819;28;20443;-77
2022/11/27 11:13:54;;;;;;;8.60;2.58;;;;;;;;;;5070656;28;20094;-73
2022/11/27 11:16:29;;;;;;;6.20;2.10;;;;;;;;;;5070804;28;20083;-77
2022/11/27 11:18:55;;;;;;;7.82;2.50;;;;;;;;;;5071156;28;20052;-77
2022/11/27 11:21:30;;;;;;;8.80;2.30;;;;;;;;;;5070857;28;20074;-75
2022/11/27 11:24:11;;;;;;;6.97;2.17;;;;;;;;;;5071162;28;20090;-75
2022/11/27 11:26:42;;;;;;;7.72;2.22;;;;;;;;;;5070805;28;20100;-75
2022/11/27 11:29:35;;;;;;;8.95;2.20;;;;;;;;;;5070783;28;20032;-75
2022/11/27 11:32:13;;;;;;;6.63;2.22;;;;;;;;;;5070694;28;20021;-76
2022/11/27 11:34:44;;;;;;;6.88;2.33;;;;;;;;;;5070669;28;20028;-74
2022/11/27 11:37:30;;;;;;;7.63;2.10;;;;;;;;;;5070290;28;20378;-75
2022/11/27 11:40:04;;;;;;;4.95;2.28;;;;;;;;;;5070875;28;20028;-73
2022/11/27 11:42:33;;;;;;;6.10;2.10;;;;;;;;;;5070178;28;20028;-74
2022/11/27 11:45:12;;;;;;;7.28;2.10;;;;;;;;;;5070862;28;20762;-74
2022/11/27 11:47:58;;;;;;;4.80;2.30;;;;;;;;;;5070301;28;20020;-80
2022/11/27 11:50:40;;;;;;;6.40;2.13;;;;;;;;;;5070421;28;20035;-78
2022/11/27 11:53:33;;;;;;;4.93;2.30;;;;;;;;;;5070029;28;20082;-75
2022/11/27 11:56:20;;;;;;;6.40;1.80;;;;;;;;;;5070183;28;20032;-75
2022/11/27 11:58:59;;;;;;;7.03;2.03;;;;;;;;;;5069613;28;20035;-74
2022/11/27 12:01:40;;;;;;;5.35;2.30;;;;;;;;;;5070197;28;20032;-74
2022/11/27 12:04:24;;;;;;;6.22;2.30;;;;;;;;;;5068980;28;20032;-80
2022/11/27 12:07:20;;;;;;;5.03;2.10;;;;;;;;;;5069844;28;20434;-78
2022/11/27 12:09:55;;;;;;;5.75;2.30;;;;;;;;;;5069771;28;20064;-77
2022/11/27 12:12:38;;;;;;;7.18;2.20;;;;;;;;;;5069572;28;20025;-78
2022/11/27 12:15:17;;;;;;;5.57;2.17;;;;;;;;;;5070124;28;20032;-77
2022/11/27 12:18:22;;;;;;;5.38;2.22;;;;;;;;;;5069746;28;20048;-76
2022/11/27 12:21:13;;;;;;;8.98;2.92;;;;;;;;;;5068780;28;20107;-73
2022/11/27 12:24:03;;;;;;;7.00;1.95;;;;;;;;;;5069506;28;20028;-74
2022/11/27 12:26:35;;;;;;;6.32;2.00;;;;;;;;;;5069519;28;20044;-74
2022/11/27 12:29:04;;;;;;;5.53;2.17;;;;;;;;;;5069303;28;20077;-73
2022/11/27 12:31:51;;;;;;;6.55;2.40;;;;;;;;;;5069836;28;20016;-74
2022/11/27 12:34:37;;;;;;;8.52;2.25;;;;;;;;;;5069866;28;20032;-74
2022/11/27 12:37:14;;;;;;;7.07;2.25;;;;;;;;;;5069610;28;20050;-74
2022/11/27 12:40:06;;;;;;;5.15;2.00;;;;;;;;;;5069859;28;20502;-74
2022/11/27 12:42:53;;;;;;;7.55;2.38;;;;;;;;;;5068968;28;20384;-73
2022/11/27 12:45:18;;;;;;;6.25;2.20;;;;;;;;;;5069495;28;20078;-74
2022/11/27 12:47:51;;;;;;;6.30;2.13;;;;;;;;;;5068482;28;20044;-78
2022/11/27 12:50:29;;;;;;;7.63;2.30;;;;;;;;;;5069703;28;20472;-75
2022/11/27 12:53:31;;;;;;;7.85;2.40;;;;;;;;;;5069498;28;20490;-73
2022/11/27 12:56:09;;;;;;;6.18;2.00;;;;;;;;;;5069222;28;20506;-74
2022/11/27 12:58:40;;;;;;;4.07;1.92;;;;;;;;;;5068609;28;20029;-73
2022/11/27 13:01:18;;;;;;;6.38;2.17;;;;;;;;;;5069175;28;20048;-74
2022/11/27 13:04:12;;;;;;;7.60;2.10;;;;;;;;;;5068901;28;20034;-73
2022/11/27 13:07:10;;;;;;;5.50;1.77;;;;;;;;;;5069281;28;20024;-79
2022/11/27 13:09:46;;;;;;;7.25;2.17;;;;;;;;;;5069229;28;20115;-79
2022/11/27 13:12:18;;;;;;;6.78;2.00;;;;;;;;;;5068951;28;20820;-78
2022/11/27 13:14:49;;;;;;;8.05;2.17;;;;;;;;;;5068962;28;20036;-77
2022/11/27 13:17:16;;;;;;;5.00;1.85;;;;;;;;;;5069067;28;20047;-78
2022/11/27 13:19:48;;;;;;;4.53;1.77;;;;;;;;;;5068921;28;20094;-77
2022/11/27 13:22:26;;;;;;;7.22;2.20;;;;;;;;;;5068885;28;20123;-78
2022/11/27 13:24:52;;;;;;;6.60;2.20;;;;;;;;;;5068900;28;20036;-78
2022/11/27 13:27:22;;;;;;;5.72;2.05;;;;;;;;;;5068711;28;20033;-76
2022/11/27 13:29:58;;;;;;;4.95;2.10;;;;;;;;;;5069054;28;20024;-79
2022/11/27 13:32:33;;;;;;;6.20;1.92;;;;;;;;;;5068700;28;20028;-75
2022/11/27 13:35:03;;;;;;;5.95;1.90;;;;;;;;;;5068733;28;20029;-79
2022/11/27 13:37:39;;;;;;;5.75;1.88;;;;;;;;;;5068362;28;20101;-75
2022/11/27 13:40:17;;;;;;;7.05;2.00;;;;;;;;;;5068825;28;20028;-74
2022/11/27 13:42:52;;;;;;;7.32;2.35;;;;;;;;;;5068388;28;20427;-78
2022/11/27 13:45:23;;;;;;;5.53;2.08;;;;;;;;;;5069100;28;20032;-79
2022/11/27 13:47:50;;;;;;;7.13;2.55;;;;;;;;;;5068558;28;20123;-79
2022/11/27 13:50:18;;;;;;;5.65;2.00;;;;;;;;;;5067789;28;20383;-79
2022/11/27 13:53:03;;;;;;;5.25;1.80;;;;;;;;;;5068491;28;20032;-76
2022/11/27 13:55:36;;;;;;;7.85;2.03;;;;;;;;;;5068631;28;20035;-73
2022/11/27 13:58:03;;;;;;;3.85;1.70;;;;;;;;;;5068103;28;20048;-76
2022/11/27 14:00:34;;;;;;;7.32;1.80;;;;;;;;;;5072721;28;20036;-78
2022/11/27 14:03:00;;;;;;;7.68;2.40;;;;;;;;;;5072609;28;20033;-74
2022/11/27 14:05:41;;;;;;;5.38;1.88;;;;;;;;;;5072499;28;20024;-76
2022/11/27 14:08:23;;;;;;;5.47;1.98;;;;;;;;;;5072126;28;20020;-78
2022/11/27 14:11:04;;;;;;;5.18;1.88;;;;;;;;;;5072552;28;20025;-76
2022/11/27 14:13:46;;;;;;;4.90;1.70;;;;;;;;;;5071816;28;20031;-76
2022/11/27 14:16:27;;;;;;;5.05;1.73;;;;;;;;;;5072307;28;20119;-74
2022/11/27 14:18:56;;;;;;;6.07;2.05;;;;;;;;;;5071948;28;20036;-75
2022/11/27 14:21:41;;;;;;;7.20;2.30;;;;;;;;;;5072305;28;20598;-76
2022/11/27 14:24:22;;;;;;;7.93;1.85;;;;;;;;;;5072046;28;20500;-78
2022/11/27 14:26:48;;;;;;;6.60;2.00;;;;;;;;;;5071032;28;20032;-78
2022/11/27 14:29:14;;;;;;;6.10;1.88;;;;;;;;;;5071054;28;20067;-74
2022/11/27 14:31:39;;;;;;;5.03;1.75;;;;;;;;;;5072001;28;20503;-75
2022/11/27 14:34:05;;;;;;;4.93;1.85;;;;;;;;;;5071828;28;20029;-74
2022/11/27 14:36:35;;;;;;;6.50;1.77;;;;;;;;;;5071987;28;20035;-74
2022/11/27 14:39:01;;;;;;;6.05;1.90;;;;;;;;;;5071792;28;20028;-78
2022/11/27 14:41:28;;;;;;;6.38;1.88;;;;;;;;;;5072268;28;20039;-75
2022/11/27 14:44:05;;;;;;;4.57;1.85;;;;;;;;;;5071428;28;20082;-77
2022/11/27 14:46:35;;;;;;;6.90;1.85;;;;;;;;;;5071666;28;20028;-76
2022/11/27 14:49:01;;;;;;;3.30;1.80;;;;;;;;;;5071217;28;20399;-75
2022/11/27 14:51:29;;;;;;;6.20;1.98;;;;;;;;;;5071842;28;20025;-77
2022/11/27 14:53:59;;;;;;;5.70;1.90;;;;;;;;;;5071559;28;20103;-78
2022/11/27 14:56:31;;;;;;;4.35;1.85;;;;;;;;;;5071399;28;20090;-79
2022/11/27 14:58:58;;;;;;;6.72;1.92;;;;;;;;;;5071118;28;20025;-80
2022/11/27 15:01:26;;;;;;;7.45;2.08;;;;;;;;;;5071700;28;20023;-78